createdAt,value
2018-12-27T00:01:33.683Z,19.77
2018-12-27T00:06:37.440Z,17.17
2018-12-27T00:11:41.158Z,16.73
2018-12-27T00:16:44.894Z,15.37
2018-12-27T00:21:48.667Z,16.10
2018-12-27T00:26:52.436Z,15.80
2018-12-27T00:31:56.475Z,16.47
2018-12-27T00:37:00.467Z,13.43
2018-12-27T00:42:04.528Z,14.57
2018-12-27T00:47:08.551Z,16.00
2018-12-27T00:52:12.585Z,14.63
2018-12-27T00:57:16.651Z,15.30
2018-12-27T01:02:20.634Z,15.90
2018-12-27T01:07:24.655Z,15.70
2018-12-27T01:12:28.752Z,13.13
2018-12-27T01:17:32.855Z,14.60
2018-12-27T01:22:36.901Z,15.00
2018-12-27T01:27:40.932Z,14.33
2018-12-27T01:32:44.932Z,13.63
2018-12-27T01:37:48.926Z,15.03
2018-12-27T01:42:53.424Z,13.17
2018-12-27T01:47:57.453Z,15.03
2018-12-27T01:53:01.573Z,13.30
2018-12-27T01:58:05.583Z,13.30
2018-12-27T02:03:09.638Z,17.40
2018-12-27T02:08:13.637Z,15.73
2018-12-27T02:13:17.613Z,14.30
2018-12-27T02:18:21.688Z,14.50
2018-12-27T02:23:25.687Z,16.03
2018-12-27T02:28:29.713Z,16.40
2018-12-27T02:33:35.584Z,14.20
2018-12-27T02:38:39.486Z,13.53
2018-12-27T02:43:43.477Z,16.43
2018-12-27T02:48:47.478Z,14.53
2018-12-27T02:53:51.482Z,14.87
2018-12-27T02:58:55.522Z,15.10
2018-12-27T03:03:59.502Z,15.33
2018-12-27T03:09:04.610Z,12.63
2018-12-27T03:14:08.903Z,12.93
2018-12-27T03:19:12.888Z,14.67
2018-12-27T03:24:16.990Z,12.97
2018-12-27T03:29:21.003Z,12.90
2018-12-27T03:34:25.014Z,12.73
2018-12-27T03:39:29.001Z,10.97
2018-12-27T03:44:33.001Z,11.17
2018-12-27T03:49:36.986Z,10.43
2018-12-27T03:54:40.962Z,9.87
2018-12-27T03:59:45.290Z,12.33
2018-12-27T04:04:49.311Z,10.80
2018-12-27T04:09:53.358Z,11.53
2018-12-27T04:15:06.498Z,10.77
2018-12-27T04:20:10.361Z,9.43
2018-12-27T04:25:14.248Z,10.83
2018-12-27T04:30:18.093Z,10.03
2018-12-27T04:35:22.016Z,8.57
2018-12-27T04:40:25.786Z,9.43
2018-12-27T04:45:29.615Z,7.40
2018-12-27T04:50:33.389Z,7.97
2018-12-27T04:55:37.119Z,7.37
2018-12-27T05:00:40.842Z,6.13
2018-12-27T05:05:44.552Z,7.00
2018-12-27T05:10:48.295Z,5.70
2018-12-27T05:15:52.155Z,6.30
2018-12-27T05:20:55.915Z,7.47
2018-12-27T05:25:59.691Z,6.17
2018-12-27T05:31:03.505Z,7.43
2018-12-27T05:36:07.247Z,5.70
2018-12-27T05:41:11.020Z,6.03
2018-12-27T05:46:14.838Z,6.00
2018-12-27T05:51:18.593Z,5.20
2018-12-27T05:56:22.389Z,6.27
2018-12-27T06:01:26.120Z,5.90
2018-12-27T06:06:29.941Z,5.33
2018-12-27T06:11:33.705Z,6.60
2018-12-27T06:16:37.447Z,5.50
2018-12-27T06:21:41.161Z,5.83
2018-12-27T06:26:44.888Z,5.10
2018-12-27T06:31:48.645Z,4.53
2018-12-27T06:36:52.373Z,4.97
2018-12-27T06:41:56.121Z,5.00
2018-12-27T06:46:59.867Z,6.00
2018-12-27T06:52:03.604Z,4.87
2018-12-27T06:57:07.358Z,7.57
2018-12-27T07:02:11.101Z,6.93
2018-12-27T07:07:14.907Z,5.50
2018-12-27T07:12:18.637Z,6.13
2018-12-27T07:17:22.355Z,6.87
2018-12-27T07:22:26.092Z,6.80
2018-12-27T07:27:29.815Z,7.53
2018-12-27T07:32:33.537Z,8.93
2018-12-27T07:37:37.278Z,8.30
2018-12-27T07:42:41.049Z,7.33
2018-12-27T07:47:44.794Z,6.67
2018-12-27T07:52:48.535Z,10.10
2018-12-27T07:57:52.251Z,6.67
2018-12-27T08:02:55.955Z,7.50
2018-12-27T08:07:59.707Z,7.63
2018-12-27T08:13:03.418Z,9.27
2018-12-27T08:18:07.145Z,9.57
2018-12-27T08:23:10.869Z,8.80
2018-12-27T08:28:14.590Z,9.03
2018-12-27T08:33:18.459Z,9.30
2018-12-27T08:38:22.217Z,9.10
2018-12-27T08:43:25.944Z,9.53
2018-12-27T08:48:29.662Z,10.17
2018-12-27T08:53:33.375Z,9.83
2018-12-27T08:58:37.116Z,10.43
2018-12-27T09:03:40.851Z,9.53
2018-12-27T09:08:44.592Z,10.27
2018-12-27T09:13:48.305Z,10.07
2018-12-27T09:18:52.014Z,10.37
2018-12-27T09:23:55.720Z,9.67
2018-12-27T09:28:59.446Z,9.53
2018-12-27T09:34:03.180Z,10.00
2018-12-27T09:39:07.482Z,10.87
2018-12-27T09:44:11.190Z,9.97
2018-12-27T09:49:14.927Z,9.70
2018-12-27T09:54:18.650Z,8.83
2018-12-27T09:59:22.398Z,9.60
2018-12-27T10:04:26.192Z,7.93
2018-12-27T10:09:29.913Z,8.50
2018-12-27T10:14:33.652Z,7.90
2018-12-27T10:19:37.363Z,7.73
2018-12-27T10:24:41.085Z,7.03
2018-12-27T10:29:44.801Z,7.80
2018-12-27T10:34:48.546Z,8.67
2018-12-27T10:39:52.272Z,7.43
2018-12-27T10:44:56.178Z,8.57
2018-12-27T10:49:59.897Z,7.50
2018-12-27T10:55:03.991Z,8.17
2018-12-27T11:00:10.068Z,7.77
2018-12-27T11:05:13.773Z,8.30
2018-12-27T11:10:17.489Z,6.80
2018-12-27T11:15:21.202Z,8.33
2018-12-27T11:20:25.028Z,7.33
2018-12-27T11:25:28.751Z,7.80
2018-12-27T11:30:32.695Z,7.17
2018-12-27T11:35:36.423Z,8.70
2018-12-27T11:40:40.132Z,6.33
2018-12-27T11:45:43.899Z,5.83
2018-12-27T11:50:47.684Z,7.10
2018-12-27T11:55:51.419Z,5.90
2018-12-27T12:00:55.194Z,4.33
2018-12-27T12:06:03.215Z,4.63
2018-12-27T12:11:04.399Z,4.83
2018-12-27T12:16:08.274Z,5.97
2018-12-27T12:43:56.519Z,5.00
2018-12-27T12:49:00.290Z,4.70
2018-12-27T12:54:04.042Z,5.83
2018-12-27T13:04:32.181Z,4.23
2018-12-27T13:09:35.954Z,4.77
2018-12-27T13:14:39.715Z,4.90
2018-12-27T13:19:43.473Z,5.00
2018-12-27T13:24:47.288Z,5.77
2018-12-27T13:29:51.051Z,5.43
2018-12-27T13:34:54.794Z,5.63
2018-12-27T13:39:58.565Z,5.83
2018-12-27T13:45:02.326Z,5.63
2018-12-27T13:50:06.414Z,5.97
2018-12-27T13:55:10.312Z,5.83
2018-12-27T14:00:14.479Z,5.83
2018-12-27T14:05:22.101Z,6.57
2018-12-27T14:10:25.845Z,5.10
2018-12-27T14:15:29.589Z,5.53
2018-12-27T14:20:33.333Z,6.53
2018-12-27T14:25:37.104Z,5.63
2018-12-27T14:30:40.872Z,4.97
2018-12-27T14:35:44.662Z,6.43
2018-12-27T14:40:48.400Z,4.77
2018-12-27T14:45:52.174Z,4.43
2018-12-27T14:50:55.915Z,7.70
2018-12-27T14:55:59.654Z,6.17
2018-12-27T15:01:03.411Z,5.33
2018-12-27T15:06:07.187Z,8.37
2018-12-27T15:11:10.964Z,6.37
2018-12-27T15:16:14.698Z,7.43
2018-12-27T15:21:18.459Z,12.47
2018-12-27T15:26:22.204Z,8.37
2018-12-27T15:31:25.964Z,7.07
2018-12-27T15:36:29.710Z,7.23
2018-12-27T15:41:33.471Z,9.80
2018-12-27T15:46:37.221Z,6.87
2018-12-27T15:51:41.099Z,8.60
2018-12-27T15:56:44.844Z,7.57
2018-12-27T16:01:48.697Z,7.73
2018-12-27T16:06:52.512Z,8.37
2018-12-27T16:11:56.254Z,7.67
2018-12-27T16:17:00.035Z,7.10
2018-12-27T16:22:03.863Z,10.20
2018-12-27T16:27:08.465Z,7.70
2018-12-27T16:32:12.391Z,7.57
2018-12-27T16:37:16.134Z,8.20
2018-12-27T16:42:22.007Z,7.60
2018-12-27T16:47:25.600Z,7.90
2018-12-27T16:52:29.351Z,7.50
2018-12-27T16:57:33.102Z,6.93
2018-12-27T17:02:36.865Z,8.47
2018-12-27T17:07:40.628Z,5.67
2018-12-27T17:12:44.445Z,7.95
2018-12-27T17:17:48.187Z,7.27
2018-12-27T17:22:52.017Z,7.20
2018-12-27T17:27:55.849Z,7.73
2018-12-27T17:32:59.631Z,8.73
2018-12-27T17:38:03.412Z,9.30
2018-12-27T17:43:07.156Z,8.30
2018-12-27T17:48:10.889Z,8.60
2018-12-27T17:53:14.631Z,9.23
2018-12-27T17:58:18.614Z,8.13
2018-12-27T18:03:22.381Z,7.33
2018-12-27T18:08:26.084Z,9.03
2018-12-27T18:13:30.073Z,9.10
2018-12-27T18:18:33.867Z,10.87
2018-12-27T18:23:37.653Z,9.27
2018-12-27T18:28:41.462Z,8.57
2018-12-27T18:33:45.295Z,7.70
2018-12-27T18:38:51.898Z,10.87
2018-12-27T18:43:55.636Z,10.27
2018-12-27T18:48:59.525Z,10.10
2018-12-27T18:54:04.610Z,10.00
2018-12-27T18:59:09.862Z,9.23
2018-12-27T19:04:13.713Z,9.93
2018-12-27T19:09:17.679Z,12.87
2018-12-27T19:14:21.389Z,10.67
2018-12-27T19:19:25.175Z,9.47
2018-12-27T19:24:28.996Z,10.23
2018-12-27T19:29:32.709Z,12.87
2018-12-27T19:34:36.641Z,12.67
2018-12-27T19:39:40.445Z,9.50
2018-12-27T19:44:44.228Z,11.18
2018-12-27T19:49:48.057Z,10.57
2018-12-27T19:54:51.837Z,10.07
2018-12-27T19:59:55.674Z,10.70
2018-12-27T20:04:59.646Z,7.73
2018-12-27T20:10:03.418Z,10.03
2018-12-27T20:15:07.396Z,9.67
2018-12-27T20:20:11.205Z,8.93
2018-12-27T20:25:14.991Z,11.73
2018-12-27T20:30:18.748Z,10.18
2018-12-27T20:35:22.476Z,8.10
2018-12-27T20:40:26.245Z,8.83
2018-12-27T20:45:29.978Z,7.57
2018-12-27T20:50:33.718Z,7.67
2018-12-27T20:55:37.641Z,7.80
2018-12-27T21:00:43.639Z,7.40
2018-12-27T21:05:47.654Z,8.03
2018-12-27T21:10:51.535Z,9.63
2018-12-27T21:15:55.366Z,9.10
2018-12-27T21:20:59.283Z,6.43
2018-12-27T21:26:03.223Z,8.50
2018-12-27T21:31:07.121Z,7.43
2018-12-27T21:36:11.064Z,11.53
2018-12-27T21:41:14.958Z,8.30
2018-12-27T21:46:18.832Z,7.57
2018-12-27T21:51:22.663Z,8.20
2018-12-27T21:56:26.462Z,10.80
2018-12-27T22:01:30.242Z,8.93
2018-12-27T22:06:34.176Z,6.73
2018-12-27T22:11:38.315Z,11.70
2018-12-27T22:16:42.208Z,9.87
2018-12-27T22:21:46.216Z,7.37
2018-12-27T22:26:49.988Z,8.23
2018-12-27T22:31:54.012Z,8.53
2018-12-27T22:36:59.413Z,8.40
2018-12-27T22:42:05.256Z,10.00
2018-12-27T22:47:09.188Z,8.73
2018-12-27T22:52:14.434Z,9.10
2018-12-27T22:57:19.341Z,8.20
2018-12-27T23:02:23.362Z,8.90
2018-12-27T23:07:27.136Z,7.33
2018-12-27T23:12:31.043Z,9.77
2018-12-27T23:17:34.778Z,8.75
2018-12-27T23:22:38.535Z,8.00
2018-12-27T23:27:44.600Z,8.57
2018-12-27T23:32:48.477Z,9.93
2018-12-27T23:37:52.415Z,9.27
2018-12-27T23:42:56.375Z,9.47
2018-12-27T23:48:00.414Z,8.73
2018-12-27T23:53:04.358Z,7.87
2018-12-27T23:58:08.274Z,10.30
